Obelix — 7JAX — position and weather

sailwx.info

Track history (hours):
 
Tides and Currents Weather Stations Pressure Air Temp Water Temp Dewpoint Dewpoint Depression Visibility Wind Speed Wind Dir Waves Ship Positions

Obelix

Last reported at 2014-Nov-21 10:33 UTC. Time now 2014-Nov-22 00:25 UTC.
Position N 34°37' E 134°56'.

Length 74 m; draft 4.5 m.

Type: Ship (hazmat cat D). MMSI: 432528000.

Date/timePositionNaut miles runAvg speedWind from/ knotsBaromVisibWave heightAir tempDewpointWater temp
2014-Nov-21 10:33N 34°37' E 134°56'10 9.9
2014-Nov-21 09:33N 34°30' E 135°04'1312.7
2014-Nov-21 08:33N 34°18' E 134°60'1212.6
2014-Nov-21 07:33N 34°05' E 135°00'24510.2
2014-Nov-20 07:30N 35°13' E 139°46'1112.1
2014-Nov-20 06:33N 35°24' E 139°43'1311.8
2014-Nov-20 05:26N 35°31' E 139°57'3 0.2
2014-Nov-19 18:11N 35°29' E 139°55'0 0.0
2014-Nov-19 17:32N 35°29' E 139°55'0 0.0
2014-Nov-19 16:08N 35°29' E 139°55'6 1.7
2014-Nov-19 12:33N 35°26' E 139°49'1110.7
2014-Nov-19 11:33N 35°16' E 139°47'246 9.8
2014-Nov-18 10:27N 34°07' E 134°59'1212.3
2014-Nov-18 09:30N 34°19' E 134°59'1212.2
2014-Nov-18 08:31N 34°30' E 135°02'7 7.3
2014-Nov-18 07:33N 34°36' E 134°58'5 0.3
2014-Nov-17 12:21N 34°39' E 134°52'810.0
2014-Nov-17 11:33N 34°37' E 135°01'1010.1
2014-Nov-17 10:33N 34°28' E 135°04'1212.1
2014-Nov-17 09:33N 34°16' E 134°59'1212.4
2014-Nov-17 08:34N 34°04' E 135°01'245 9.8
2014-Nov-16 07:33N 35°18' E 139°44'1010.1
2014-Nov-16 06:33N 35°27' E 139°48'8 0.9
2014-Nov-15 22:32N 35°29' E 139°57'1 1.4
2014-Nov-15 21:33N 35°29' E 139°55'0 0.0
2014-Nov-15 20:27N 35°29' E 139°55'0 0.0
2014-Nov-15 19:27N 35°29' E 139°55'0 0.0
2014-Nov-15 18:30N 35°29' E 139°55'0 0.0
2014-Nov-15 17:33N 35°29' E 139°55'0 0.0
2014-Nov-15 16:33N 35°29' E 139°55'0 0.0
2014-Nov-15 15:33N 35°29' E 139°55'0 0.0
2014-Nov-15 14:33N 35°29' E 139°55'0 0.0
2014-Nov-15 13:33N 35°29' E 139°55'0 0.0
2014-Nov-15 12:30N 35°29' E 139°55'0 0.0
2014-Nov-15 11:24N 35°29' E 139°55'0 0.0
2014-Nov-15 10:33N 35°29' E 139°55'0 0.0
2014-Nov-15 08:33N 35°29' E 139°55'0 0.0
2014-Nov-15 05:18N 35°29' E 139°55'0 0.1
2014-Nov-15 04:33N 35°29' E 139°55'4 1.5
2014-Nov-15 01:33N 35°27' E 139°50'1110.9
2014-Nov-15 00:33N 35°17' E 139°46'1511.8
2014-Nov-14 23:17N 35°02' E 139°47'2 1.9
2014-Nov-14 22:14N 35°01' E 139°49'0 0.0
2014-Nov-14 18:21N 35°01' E 139°49'  
2014-Nov-12 07:13N 35°12' E 139°46'811.3
2014-Nov-12 06:33N 35°19' E 139°43'1010.4
2014-Nov-12 05:33N 35°28' E 139°49'5 0.7
2014-Nov-11 22:33N 35°29' E 139°55'0 0.1
2014-Nov-11 21:24N 35°29' E 139°55'0 0.0
2014-Nov-11 17:21N 35°29' E 139°55'7 9.1
2014-Nov-11 16:34N 35°25' E 139°47'1110.5
2014-Nov-11 15:33N 35°14' E 139°47'  
Track history (hours):
 
Tides and Currents Weather Stations Pressure Air Temp Water Temp Dewpoint Dewpoint Depression Visibility Wind Speed Wind Dir Waves Ship Positions

Obelix

Last reported at 2014-Nov-21 10:33 UTC. Time now 2014-Nov-22 00:25 UTC.
Position N 34°37' E 134°56'.

Length 74 m; draft 4.5 m.

Type: Ship (hazmat cat D). MMSI: 432528000.

Date/timePositionNaut miles runAvg speedWind from/ knotsBaromVisibWave heightAir tempDewpointWater temp
2014-Nov-21 10:33N 34°37' E 134°56'10 9.9
2014-Nov-21 09:33N 34°30' E 135°04'1312.7
2014-Nov-21 08:33N 34°18' E 134°60'1212.6
2014-Nov-21 07:33N 34°05' E 135°00'24510.2
2014-Nov-20 07:30N 35°13' E 139°46'1112.1
2014-Nov-20 06:33N 35°24' E 139°43'1311.8
2014-Nov-20 05:26N 35°31' E 139°57'3 0.2
2014-Nov-19 18:11N 35°29' E 139°55'0 0.0
2014-Nov-19 17:32N 35°29' E 139°55'0 0.0
2014-Nov-19 16:08N 35°29' E 139°55'6 1.7
2014-Nov-19 12:33N 35°26' E 139°49'1110.7
2014-Nov-19 11:33N 35°16' E 139°47'246 9.8
2014-Nov-18 10:27N 34°07' E 134°59'1212.3
2014-Nov-18 09:30N 34°19' E 134°59'1212.2
2014-Nov-18 08:31N 34°30' E 135°02'7 7.3
2014-Nov-18 07:33N 34°36' E 134°58'5 0.3
2014-Nov-17 12:21N 34°39' E 134°52'810.0
2014-Nov-17 11:33N 34°37' E 135°01'1010.1
2014-Nov-17 10:33N 34°28' E 135°04'1212.1
2014-Nov-17 09:33N 34°16' E 134°59'1212.4
2014-Nov-17 08:34N 34°04' E 135°01'245 9.8
2014-Nov-16 07:33N 35°18' E 139°44'1010.1
2014-Nov-16 06:33N 35°27' E 139°48'8 0.9
2014-Nov-15 22:32N 35°29' E 139°57'1 1.4
2014-Nov-15 21:33N 35°29' E 139°55'0 0.0
2014-Nov-15 20:27N 35°29' E 139°55'0 0.0
2014-Nov-15 19:27N 35°29' E 139°55'0 0.0
2014-Nov-15 18:30N 35°29' E 139°55'0 0.0
2014-Nov-15 17:33N 35°29' E 139°55'0 0.0
2014-Nov-15 16:33N 35°29' E 139°55'0 0.0
2014-Nov-15 15:33N 35°29' E 139°55'0 0.0
2014-Nov-15 14:33N 35°29' E 139°55'0 0.0
2014-Nov-15 13:33N 35°29' E 139°55'0 0.0
2014-Nov-15 12:30N 35°29' E 139°55'0 0.0
2014-Nov-15 11:24N 35°29' E 139°55'0 0.0
2014-Nov-15 10:33N 35°29' E 139°55'0 0.0
2014-Nov-15 08:33N 35°29' E 139°55'0 0.0
2014-Nov-15 05:18N 35°29' E 139°55'0 0.1
2014-Nov-15 04:33N 35°29' E 139°55'4 1.5
2014-Nov-15 01:33N 35°27' E 139°50'1110.9
2014-Nov-15 00:33N 35°17' E 139°46'1511.8
2014-Nov-14 23:17N 35°02' E 139°47'2 1.9
2014-Nov-14 22:14N 35°01' E 139°49'0 0.0
2014-Nov-14 18:21N 35°01' E 139°49'  
2014-Nov-12 07:13N 35°12' E 139°46'811.3
2014-Nov-12 06:33N 35°19' E 139°43'1010.4
2014-Nov-12 05:33N 35°28' E 139°49'5 0.7
2014-Nov-11 22:33N 35°29' E 139°55'0 0.1
2014-Nov-11 21:24N 35°29' E 139°55'0 0.0
2014-Nov-11 17:21N 35°29' E 139°55'7 9.1
2014-Nov-11 16:34N 35°25' E 139°47'1110.5
2014-Nov-11 15:33N 35°14' E 139°47'  

Dump ship's entire track history